sensor_id;sensor_type;location;lat;lon;timestamp;P1;durP1;ratioP1;P2;durP2;ratioP2
33672;SDS011;20011;51.510;9.942;2023-04-16T00:02:04;49.85;;;31.48;;
33672;SDS011;20011;51.510;9.942;2023-04-16T00:04:31;50.83;;;31.80;;
33672;SDS011;20011;51.510;9.942;2023-04-16T00:06:58;55.42;;;32.70;;
33672;SDS011;20011;51.510;9.942;2023-04-16T00:09:25;50.63;;;32.55;;
33672;SDS011;20011;51.510;9.942;2023-04-16T00:11:52;48.63;;;32.35;;
33672;SDS011;20011;51.510;9.942;2023-04-16T00:14:20;49.28;;;32.05;;
33672;SDS011;20011;51.510;9.942;2023-04-16T00:16:47;49.35;;;32.50;;
33672;SDS011;20011;51.510;9.942;2023-04-16T00:19:14;47.13;;;30.20;;
33672;SDS011;20011;51.510;9.942;2023-04-16T00:21:41;48.92;;;30.25;;
33672;SDS011;20011;51.510;9.942;2023-04-16T00:24:09;44.60;;;29.30;;
33672;SDS011;20011;51.510;9.942;2023-04-16T00:26:36;48.08;;;29.75;;
33672;SDS011;20011;51.510;9.942;2023-04-16T00:29:03;48.00;;;28.38;;
33672;SDS011;20011;51.510;9.942;2023-04-16T00:31:31;50.25;;;27.90;;
33672;SDS011;20011;51.510;9.942;2023-04-16T00:34:01;45.75;;;29.13;;
33672;SDS011;20011;51.510;9.942;2023-04-16T00:36:28;45.60;;;29.40;;
33672;SDS011;20011;51.510;9.942;2023-04-16T00:38:56;39.85;;;28.52;;
33672;SDS011;20011;51.510;9.942;2023-04-16T00:41:23;46.58;;;28.30;;
33672;SDS011;20011;51.510;9.942;2023-04-16T00:43:50;43.50;;;28.15;;
33672;SDS011;20011;51.510;9.942;2023-04-16T00:46:18;42.90;;;27.95;;
33672;SDS011;20011;51.510;9.942;2023-04-16T00:48:47;50.20;;;30.17;;
33672;SDS011;20011;51.510;9.942;2023-04-16T00:51:17;44.30;;;28.52;;
33672;SDS011;20011;51.510;9.942;2023-04-16T00:53:46;44.20;;;29.00;;
33672;SDS011;20011;51.510;9.942;2023-04-16T00:56:13;43.83;;;28.65;;
33672;SDS011;20011;51.510;9.942;2023-04-16T00:58:43;45.15;;;28.70;;
33672;SDS011;20011;51.510;9.942;2023-04-16T01:01:11;41.58;;;28.52;;
33672;SDS011;20011;51.510;9.942;2023-04-16T01:03:43;40.75;;;27.70;;
33672;SDS011;20011;51.510;9.942;2023-04-16T01:06:13;44.03;;;27.65;;
33672;SDS011;20011;51.510;9.942;2023-04-16T01:08:43;44.88;;;28.73;;
33672;SDS011;20011;51.510;9.942;2023-04-16T01:11:10;49.72;;;29.45;;
33672;SDS011;20011;51.510;9.942;2023-04-16T01:13:39;48.60;;;29.38;;
33672;SDS011;20011;51.510;9.942;2023-04-16T01:16:07;47.45;;;30.88;;
33672;SDS011;20011;51.510;9.942;2023-04-16T01:18:36;55.75;;;31.90;;
33672;SDS011;20011;51.510;9.942;2023-04-16T01:21:04;46.13;;;30.75;;
33672;SDS011;20011;51.510;9.942;2023-04-16T01:23:31;53.22;;;32.50;;
33672;SDS011;20011;51.510;9.942;2023-04-16T01:25:58;52.40;;;31.55;;
33672;SDS011;20011;51.510;9.942;2023-04-16T01:28:26;53.95;;;33.67;;
33672;SDS011;20011;51.510;9.942;2023-04-16T01:30:53;53.08;;;34.20;;
33672;SDS011;20011;51.510;9.942;2023-04-16T01:33:40;56.35;;;33.95;;
33672;SDS011;20011;51.510;9.942;2023-04-16T01:36:10;48.13;;;33.38;;
33672;SDS011;20011;51.510;9.942;2023-04-16T01:38:37;53.30;;;35.63;;
33672;SDS011;20011;51.510;9.942;2023-04-16T01:41:04;52.30;;;36.33;;
33672;SDS011;20011;51.510;9.942;2023-04-16T01:43:31;56.17;;;35.53;;
33672;SDS011;20011;51.510;9.942;2023-04-16T01:46:08;55.70;;;36.17;;
33672;SDS011;20011;51.510;9.942;2023-04-16T01:48:44;63.20;;;37.13;;
33672;SDS011;20011;51.510;9.942;2023-04-16T01:51:12;48.20;;;32.92;;
33672;SDS011;20011;51.510;9.942;2023-04-16T01:53:39;54.95;;;35.08;;
33672;SDS011;20011;51.510;9.942;2023-04-16T01:56:06;47.95;;;34.58;;
33672;SDS011;20011;51.510;9.942;2023-04-16T01:58:34;57.65;;;35.40;;
33672;SDS011;20011;51.510;9.942;2023-04-16T02:01:01;49.13;;;32.80;;
33672;SDS011;20011;51.510;9.942;2023-04-16T02:03:30;52.40;;;32.38;;
33672;SDS011;20011;51.510;9.942;2023-04-16T02:05:58;43.30;;;29.02;;
33672;SDS011;20011;51.510;9.942;2023-04-16T02:08:27;49.40;;;32.67;;
33672;SDS011;20011;51.510;9.942;2023-04-16T02:10:55;46.22;;;31.30;;
33672;SDS011;20011;51.510;9.942;2023-04-16T02:13:24;38.00;;;28.23;;
33672;SDS011;20011;51.510;9.942;2023-04-16T02:15:52;42.97;;;29.45;;
33672;SDS011;20011;51.510;9.942;2023-04-16T02:18:30;40.60;;;28.23;;
33672;SDS011;20011;51.510;9.942;2023-04-16T02:20:57;44.17;;;27.80;;
33672;SDS011;20011;51.510;9.942;2023-04-16T02:23:25;41.72;;;28.50;;
33672;SDS011;20011;51.510;9.942;2023-04-16T02:25:55;40.72;;;26.35;;
33672;SDS011;20011;51.510;9.942;2023-04-16T02:28:22;34.47;;;25.58;;
33672;SDS011;20011;51.510;9.942;2023-04-16T02:30:49;34.22;;;24.55;;
33672;SDS011;20011;51.510;9.942;2023-04-16T02:33:18;36.28;;;26.10;;
33672;SDS011;20011;51.510;9.942;2023-04-16T02:35:55;33.10;;;21.67;;
33672;SDS011;20011;51.510;9.942;2023-04-16T02:38:22;36.97;;;23.10;;
33672;SDS011;20011;51.510;9.942;2023-04-16T02:40:50;32.75;;;22.05;;
33672;SDS011;20011;51.510;9.942;2023-04-16T02:43:17;37.03;;;21.48;;
33672;SDS011;20011;51.510;9.942;2023-04-16T02:45:44;31.45;;;20.92;;
33672;SDS011;20011;51.510;9.942;2023-04-16T02:48:11;27.52;;;20.17;;
33672;SDS011;20011;51.510;9.942;2023-04-16T02:50:38;28.90;;;19.98;;
33672;SDS011;20011;51.510;9.942;2023-04-16T02:53:06;26.58;;;19.27;;
33672;SDS011;20011;51.510;9.942;2023-04-16T02:55:33;27.75;;;17.38;;
33672;SDS011;20011;51.510;9.942;2023-04-16T02:58:00;25.33;;;18.83;;
33672;SDS011;20011;51.510;9.942;2023-04-16T03:00:27;24.10;;;18.58;;
33672;SDS011;20011;51.510;9.942;2023-04-16T03:02:54;25.00;;;17.73;;
33672;SDS011;20011;51.510;9.942;2023-04-16T03:05:22;26.70;;;18.20;;
33672;SDS011;20011;51.510;9.942;2023-04-16T03:07:49;22.67;;;17.35;;
33672;SDS011;20011;51.510;9.942;2023-04-16T03:10:21;25.58;;;19.45;;
33672;SDS011;20011;51.510;9.942;2023-04-16T03:12:49;26.45;;;19.10;;
33672;SDS011;20011;51.510;9.942;2023-04-16T03:15:16;30.70;;;20.67;;
33672;SDS011;20011;51.510;9.942;2023-04-16T03:17:43;27.15;;;20.50;;
33672;SDS011;20011;51.510;9.942;2023-04-16T03:20:10;34.00;;;21.98;;
33672;SDS011;20011;51.510;9.942;2023-04-16T03:22:37;31.83;;;22.33;;
33672;SDS011;20011;51.510;9.942;2023-04-16T03:25:05;27.92;;;21.15;;
33672;SDS011;20011;51.510;9.942;2023-04-16T03:27:33;32.22;;;22.90;;
33672;SDS011;20011;51.510;9.942;2023-04-16T03:30:00;32.38;;;22.83;;
33672;SDS011;20011;51.510;9.942;2023-04-16T03:32:28;35.05;;;24.23;;
33672;SDS011;20011;51.510;9.942;2023-04-16T03:34:55;34.47;;;24.95;;
33672;SDS011;20011;51.510;9.942;2023-04-16T03:37:22;37.63;;;26.15;;
33672;SDS011;20011;51.510;9.942;2023-04-16T03:39:49;41.42;;;26.40;;
33672;SDS011;20011;51.510;9.942;2023-04-16T03:42:16;41.70;;;26.67;;
33672;SDS011;20011;51.510;9.942;2023-04-16T03:44:43;39.63;;;25.70;;
33672;SDS011;20011;51.510;9.942;2023-04-16T03:47:12;39.53;;;26.92;;
33672;SDS011;20011;51.510;9.942;2023-04-16T03:49:39;41.53;;;29.25;;
33672;SDS011;20011;51.510;9.942;2023-04-16T03:52:06;44.33;;;27.95;;
33672;SDS011;20011;51.510;9.942;2023-04-16T03:54:33;40.10;;;28.80;;
33672;SDS011;20011;51.510;9.942;2023-04-16T03:57:11;46.33;;;30.30;;
33672;SDS011;20011;51.510;9.942;2023-04-16T03:59:38;41.10;;;27.10;;
33672;SDS011;20011;51.510;9.942;2023-04-16T04:02:06;43.08;;;28.15;;
33672;SDS011;20011;51.510;9.942;2023-04-16T04:04:33;48.88;;;30.08;;
33672;SDS011;20011;51.510;9.942;2023-04-16T04:07:01;38.95;;;27.42;;
33672;SDS011;20011;51.510;9.942;2023-04-16T04:09:28;42.85;;;27.98;;
33672;SDS011;20011;51.510;9.942;2023-04-16T04:11:55;40.50;;;28.60;;
33672;SDS011;20011;51.510;9.942;2023-04-16T04:14:23;44.42;;;28.80;;
33672;SDS011;20011;51.510;9.942;2023-04-16T04:16:50;41.38;;;28.27;;
33672;SDS011;20011;51.510;9.942;2023-04-16T04:19:17;45.45;;;30.55;;
33672;SDS011;20011;51.510;9.942;2023-04-16T04:21:44;44.70;;;28.52;;
33672;SDS011;20011;51.510;9.942;2023-04-16T04:24:12;39.35;;;27.55;;
33672;SDS011;20011;51.510;9.942;2023-04-16T04:26:39;41.67;;;26.80;;
33672;SDS011;20011;51.510;9.942;2023-04-16T04:29:06;39.90;;;28.58;;
33672;SDS011;20011;51.510;9.942;2023-04-16T04:31:34;41.35;;;27.52;;
33672;SDS011;20011;51.510;9.942;2023-04-16T04:34:01;39.58;;;26.30;;
33672;SDS011;20011;51.510;9.942;2023-04-16T04:36:28;40.58;;;28.15;;
33672;SDS011;20011;51.510;9.942;2023-04-16T04:38:57;43.63;;;29.17;;
33672;SDS011;20011;51.510;9.942;2023-04-16T04:41:24;44.97;;;29.05;;
33672;SDS011;20011;51.510;9.942;2023-04-16T04:43:52;37.88;;;27.33;;
33672;SDS011;20011;51.510;9.942;2023-04-16T04:46:19;44.85;;;27.90;;
33672;SDS011;20011;51.510;9.942;2023-04-16T04:48:48;44.38;;;29.25;;
33672;SDS011;20011;51.510;9.942;2023-04-16T04:51:16;46.67;;;29.20;;
33672;SDS011;20011;51.510;9.942;2023-04-16T04:53:45;46.60;;;30.80;;
33672;SDS011;20011;51.510;9.942;2023-04-16T04:56:12;42.63;;;28.73;;
33672;SDS011;20011;51.510;9.942;2023-04-16T04:58:40;44.55;;;29.88;;
33672;SDS011;20011;51.510;9.942;2023-04-16T05:01:07;49.10;;;28.65;;
33672;SDS011;20011;51.510;9.942;2023-04-16T05:03:34;44.00;;;29.42;;
33672;SDS011;20011;51.510;9.942;2023-04-16T05:06:02;49.97;;;30.88;;
33672;SDS011;20011;51.510;9.942;2023-04-16T05:08:29;46.60;;;30.63;;
33672;SDS011;20011;51.510;9.942;2023-04-16T05:10:56;48.20;;;29.67;;
33672;SDS011;20011;51.510;9.942;2023-04-16T05:13:23;47.47;;;29.88;;
33672;SDS011;20011;51.510;9.942;2023-04-16T05:15:50;51.90;;;31.00;;
33672;SDS011;20011;51.510;9.942;2023-04-16T05:18:17;46.38;;;32.20;;
33672;SDS011;20011;51.510;9.942;2023-04-16T05:20:44;59.10;;;32.90;;
33672;SDS011;20011;51.510;9.942;2023-04-16T05:23:12;54.00;;;34.03;;
33672;SDS011;20011;51.510;9.942;2023-04-16T05:25:40;62.92;;;36.95;;
33672;SDS011;20011;51.510;9.942;2023-04-16T05:28:08;60.95;;;35.70;;
33672;SDS011;20011;51.510;9.942;2023-04-16T05:30:36;63.85;;;35.17;;
33672;SDS011;20011;51.510;9.942;2023-04-16T05:33:03;53.42;;;33.30;;
33672;SDS011;20011;51.510;9.942;2023-04-16T05:35:30;58.88;;;35.50;;
33672;SDS011;20011;51.510;9.942;2023-04-16T05:37:57;53.28;;;34.00;;
33672;SDS011;20011;51.510;9.942;2023-04-16T05:40:24;55.08;;;33.78;;
33672;SDS011;20011;51.510;9.942;2023-04-16T05:42:52;56.65;;;35.80;;
33672;SDS011;20011;51.510;9.942;2023-04-16T05:45:19;56.45;;;34.75;;
33672;SDS011;20011;51.510;9.942;2023-04-16T05:47:46;51.33;;;33.50;;
33672;SDS011;20011;51.510;9.942;2023-04-16T05:50:14;52.72;;;33.55;;
33672;SDS011;20011;51.510;9.942;2023-04-16T05:52:41;52.97;;;33.83;;
33672;SDS011;20011;51.510;9.942;2023-04-16T05:55:08;50.20;;;30.92;;
33672;SDS011;20011;51.510;9.942;2023-04-16T05:57:35;61.60;;;35.90;;
33672;SDS011;20011;51.510;9.942;2023-04-16T06:00:03;49.70;;;31.52;;
33672;SDS011;20011;51.510;9.942;2023-04-16T06:02:37;50.85;;;33.38;;
33672;SDS011;20011;51.510;9.942;2023-04-16T06:05:04;53.33;;;33.13;;
33672;SDS011;20011;51.510;9.942;2023-04-16T06:07:32;60.10;;;33.47;;
33672;SDS011;20011;51.510;9.942;2023-04-16T06:09:59;55.63;;;32.25;;
33672;SDS011;20011;51.510;9.942;2023-04-16T06:12:26;52.70;;;33.67;;
33672;SDS011;20011;51.510;9.942;2023-04-16T06:14:53;52.17;;;33.85;;
33672;SDS011;20011;51.510;9.942;2023-04-16T06:17:20;57.47;;;34.35;;
33672;SDS011;20011;51.510;9.942;2023-04-16T06:19:48;56.05;;;33.17;;
33672;SDS011;20011;51.510;9.942;2023-04-16T06:22:15;57.58;;;35.28;;
33672;SDS011;20011;51.510;9.942;2023-04-16T06:24:43;56.20;;;35.20;;
33672;SDS011;20011;51.510;9.942;2023-04-16T06:27:10;54.75;;;34.05;;
33672;SDS011;20011;51.510;9.942;2023-04-16T06:29:37;56.70;;;34.47;;
33672;SDS011;20011;51.510;9.942;2023-04-16T06:32:07;62.00;;;36.20;;
33672;SDS011;20011;51.510;9.942;2023-04-16T06:34:34;54.25;;;33.20;;
33672;SDS011;20011;51.510;9.942;2023-04-16T06:37:01;57.67;;;34.80;;
33672;SDS011;20011;51.510;9.942;2023-04-16T06:39:28;59.25;;;34.65;;
33672;SDS011;20011;51.510;9.942;2023-04-16T06:41:55;56.05;;;35.88;;
33672;SDS011;20011;51.510;9.942;2023-04-16T06:44:22;55.78;;;34.45;;
33672;SDS011;20011;51.510;9.942;2023-04-16T06:46:49;61.05;;;34.90;;
33672;SDS011;20011;51.510;9.942;2023-04-16T06:49:16;57.78;;;35.55;;
33672;SDS011;20011;51.510;9.942;2023-04-16T06:51:43;64.90;;;37.10;;
33672;SDS011;20011;51.510;9.942;2023-04-16T06:54:10;60.72;;;37.65;;
33672;SDS011;20011;51.510;9.942;2023-04-16T06:56:37;72.38;;;38.38;;
33672;SDS011;20011;51.510;9.942;2023-04-16T06:59:04;61.15;;;36.38;;
33672;SDS011;20011;51.510;9.942;2023-04-16T07:01:33;66.75;;;38.30;;
33672;SDS011;20011;51.510;9.942;2023-04-16T07:04:01;65.13;;;37.20;;
33672;SDS011;20011;51.510;9.942;2023-04-16T07:06:29;65.60;;;35.65;;
33672;SDS011;20011;51.510;9.942;2023-04-16T07:08:57;61.75;;;34.38;;
33672;SDS011;20011;51.510;9.942;2023-04-16T07:11:24;65.90;;;36.17;;
33672;SDS011;20011;51.510;9.942;2023-04-16T07:13:51;67.78;;;36.72;;
33672;SDS011;20011;51.510;9.942;2023-04-16T07:16:19;61.15;;;35.58;;
33672;SDS011;20011;51.510;9.942;2023-04-16T07:18:46;61.53;;;34.25;;
33672;SDS011;20011;51.510;9.942;2023-04-16T07:21:13;56.90;;;32.63;;
33672;SDS011;20011;51.510;9.942;2023-04-16T07:23:40;57.28;;;32.13;;
33672;SDS011;20011;51.510;9.942;2023-04-16T07:26:08;55.15;;;29.98;;
33672;SDS011;20011;51.510;9.942;2023-04-16T07:28:37;51.50;;;31.00;;
33672;SDS011;20011;51.510;9.942;2023-04-16T07:31:04;52.67;;;30.80;;
33672;SDS011;20011;51.510;9.942;2023-04-16T07:33:31;49.80;;;29.30;;
33672;SDS011;20011;51.510;9.942;2023-04-16T07:35:58;53.65;;;32.20;;
33672;SDS011;20011;51.510;9.942;2023-04-16T07:38:25;50.33;;;29.25;;
33672;SDS011;20011;51.510;9.942;2023-04-16T07:40:52;50.90;;;28.50;;
33672;SDS011;20011;51.510;9.942;2023-04-16T07:43:20;46.60;;;27.23;;
33672;SDS011;20011;51.510;9.942;2023-04-16T07:45:47;51.38;;;29.08;;
33672;SDS011;20011;51.510;9.942;2023-04-16T07:48:15;51.38;;;28.30;;
33672;SDS011;20011;51.510;9.942;2023-04-16T07:50:42;47.47;;;27.83;;
33672;SDS011;20011;51.510;9.942;2023-04-16T07:53:10;48.15;;;29.52;;
33672;SDS011;20011;51.510;9.942;2023-04-16T07:55:38;49.88;;;28.58;;
33672;SDS011;20011;51.510;9.942;2023-04-16T07:58:05;44.45;;;26.98;;
33672;SDS011;20011;51.510;9.942;2023-04-16T08:00:35;52.90;;;28.48;;
33672;SDS011;20011;51.510;9.942;2023-04-16T08:03:02;44.28;;;28.40;;
33672;SDS011;20011;51.510;9.942;2023-04-16T08:05:30;43.13;;;27.73;;
33672;SDS011;20011;51.510;9.942;2023-04-16T08:07:57;46.42;;;27.02;;
33672;SDS011;20011;51.510;9.942;2023-04-16T08:10:24;48.15;;;27.50;;
33672;SDS011;20011;51.510;9.942;2023-04-16T08:12:53;51.30;;;26.35;;
33672;SDS011;20011;51.510;9.942;2023-04-16T08:15:21;42.25;;;25.17;;
33672;SDS011;20011;51.510;9.942;2023-04-16T08:17:48;41.85;;;24.27;;
33672;SDS011;20011;51.510;9.942;2023-04-16T08:20:16;41.20;;;24.85;;
33672;SDS011;20011;51.510;9.942;2023-04-16T08:22:44;42.53;;;25.05;;
33672;SDS011;20011;51.510;9.942;2023-04-16T08:25:12;41.28;;;23.30;;
33672;SDS011;20011;51.510;9.942;2023-04-16T08:27:40;42.20;;;22.30;;
33672;SDS011;20011;51.510;9.942;2023-04-16T08:30:07;36.90;;;22.92;;
33672;SDS011;20011;51.510;9.942;2023-04-16T08:32:36;44.85;;;24.23;;
33672;SDS011;20011;51.510;9.942;2023-04-16T08:35:05;43.22;;;22.42;;
33672;SDS011;20011;51.510;9.942;2023-04-16T08:37:33;40.97;;;23.27;;
33672;SDS011;20011;51.510;9.942;2023-04-16T08:40:00;40.40;;;22.65;;
33672;SDS011;20011;51.510;9.942;2023-04-16T08:42:31;39.25;;;23.02;;
33672;SDS011;20011;51.510;9.942;2023-04-16T08:45:16;34.78;;;22.52;;
33672;SDS011;20011;51.510;9.942;2023-04-16T08:47:47;39.47;;;21.88;;
33672;SDS011;20011;51.510;9.942;2023-04-16T08:50:24;36.75;;;22.55;;
33672;SDS011;20011;51.510;9.942;2023-04-16T08:52:55;37.58;;;21.98;;
33672;SDS011;20011;51.510;9.942;2023-04-16T08:56:02;41.70;;;23.08;;
33672;SDS011;20011;51.510;9.942;2023-04-16T08:58:22;39.63;;;23.50;;
33672;SDS011;20011;51.510;9.942;2023-04-16T09:00:57;36.88;;;23.23;;
33672;SDS011;20011;51.510;9.942;2023-04-16T09:03:25;39.40;;;22.42;;
33672;SDS011;20011;51.510;9.942;2023-04-16T09:05:55;42.50;;;24.08;;
33672;SDS011;20011;51.510;9.942;2023-04-16T09:08:25;46.58;;;25.30;;
33672;SDS011;20011;51.510;9.942;2023-04-16T09:10:54;41.58;;;24.23;;
33672;SDS011;20011;51.510;9.942;2023-04-16T09:13:22;41.53;;;24.63;;
33672;SDS011;20011;51.510;9.942;2023-04-16T09:15:53;42.13;;;24.08;;
33672;SDS011;20011;51.510;9.942;2023-04-16T09:18:22;38.85;;;23.60;;
33672;SDS011;20011;51.510;9.942;2023-04-16T09:20:51;48.25;;;26.17;;
33672;SDS011;20011;51.510;9.942;2023-04-16T09:23:18;40.47;;;23.95;;
33672;SDS011;20011;51.510;9.942;2023-04-16T09:25:45;45.35;;;23.98;;
33672;SDS011;20011;51.510;9.942;2023-04-16T09:28:37;37.17;;;24.02;;
33672;SDS011;20011;51.510;9.942;2023-04-16T09:31:15;42.40;;;25.65;;
33672;SDS011;20011;51.510;9.942;2023-04-16T09:33:43;42.03;;;25.75;;
33672;SDS011;20011;51.510;9.942;2023-04-16T09:36:34;46.35;;;25.88;;
33672;SDS011;20011;51.510;9.942;2023-04-16T09:39:02;39.75;;;24.50;;
33672;SDS011;20011;51.510;9.942;2023-04-16T09:41:30;46.92;;;26.63;;
33672;SDS011;20011;51.510;9.942;2023-04-16T09:44:02;46.72;;;27.35;;
33672;SDS011;20011;51.510;9.942;2023-04-16T09:46:32;41.17;;;24.85;;
33672;SDS011;20011;51.510;9.942;2023-04-16T09:49:07;44.42;;;26.83;;
33672;SDS011;20011;51.510;9.942;2023-04-16T09:51:36;43.60;;;25.80;;
33672;SDS011;20011;51.510;9.942;2023-04-16T09:54:08;40.13;;;25.35;;
33672;SDS011;20011;51.510;9.942;2023-04-16T09:56:39;44.22;;;26.88;;
33672;SDS011;20011;51.510;9.942;2023-04-16T09:59:15;40.85;;;26.23;;
33672;SDS011;20011;51.510;9.942;2023-04-16T10:01:43;42.80;;;26.10;;
33672;SDS011;20011;51.510;9.942;2023-04-16T10:04:15;47.20;;;26.13;;
33672;SDS011;20011;51.510;9.942;2023-04-16T10:06:43;40.17;;;25.13;;
33672;SDS011;20011;51.510;9.942;2023-04-16T10:09:13;49.83;;;26.60;;
33672;SDS011;20011;51.510;9.942;2023-04-16T10:11:41;51.72;;;28.33;;
33672;SDS011;20011;51.510;9.942;2023-04-16T10:14:08;48.58;;;27.83;;
33672;SDS011;20011;51.510;9.942;2023-04-16T10:16:35;49.90;;;28.50;;
33672;SDS011;20011;51.510;9.942;2023-04-16T10:19:05;56.30;;;29.48;;
33672;SDS011;20011;51.510;9.942;2023-04-16T10:21:32;53.17;;;28.13;;
33672;SDS011;20011;51.510;9.942;2023-04-16T10:23:59;51.17;;;30.48;;
33672;SDS011;20011;51.510;9.942;2023-04-16T10:26:28;50.08;;;29.52;;
33672;SDS011;20011;51.510;9.942;2023-04-16T10:28:57;50.33;;;30.30;;
33672;SDS011;20011;51.510;9.942;2023-04-16T10:31:26;49.15;;;27.88;;
33672;SDS011;20011;51.510;9.942;2023-04-16T10:33:55;53.42;;;29.80;;
33672;SDS011;20011;51.510;9.942;2023-04-16T10:36:24;55.00;;;29.42;;
33672;SDS011;20011;51.510;9.942;2023-04-16T10:38:52;55.13;;;29.77;;
33672;SDS011;20011;51.510;9.942;2023-04-16T10:41:24;55.15;;;30.48;;
33672;SDS011;20011;51.510;9.942;2023-04-16T10:44:02;50.50;;;28.42;;
33672;SDS011;20011;51.510;9.942;2023-04-16T10:49:14;47.42;;;27.80;;
33672;SDS011;20011;51.510;9.942;2023-04-16T10:54:19;48.97;;;28.88;;
33672;SDS011;20011;51.510;9.942;2023-04-16T10:56:51;49.58;;;30.13;;
33672;SDS011;20011;51.510;9.942;2023-04-16T11:01:53;55.25;;;31.25;;
33672;SDS011;20011;51.510;9.942;2023-04-16T11:07:06;60.35;;;32.17;;
33672;SDS011;20011;51.510;9.942;2023-04-16T11:15:07;55.22;;;29.88;;
33672;SDS011;20011;51.510;9.942;2023-04-16T11:17:39;47.92;;;29.10;;
33672;SDS011;20011;51.510;9.942;2023-04-16T11:20:09;48.72;;;30.17;;
33672;SDS011;20011;51.510;9.942;2023-04-16T11:22:56;56.05;;;29.85;;
33672;SDS011;20011;51.510;9.942;2023-04-16T11:25:27;56.33;;;31.48;;
33672;SDS011;20011;51.510;9.942;2023-04-16T11:27:56;54.90;;;32.22;;
33672;SDS011;20011;51.510;9.942;2023-04-16T11:30:28;61.60;;;32.28;;
33672;SDS011;20011;51.510;9.942;2023-04-16T11:33:03;49.67;;;30.95;;
33672;SDS011;20011;51.510;9.942;2023-04-16T11:35:34;53.25;;;29.75;;
33672;SDS011;20011;51.510;9.942;2023-04-16T11:38:02;54.38;;;31.35;;
33672;SDS011;20011;51.510;9.942;2023-04-16T11:40:31;48.35;;;29.80;;
33672;SDS011;20011;51.510;9.942;2023-04-16T11:43:14;52.03;;;28.88;;
33672;SDS011;20011;51.510;9.942;2023-04-16T11:45:55;49.83;;;27.52;;
33672;SDS011;20011;51.510;9.942;2023-04-16T11:48:54;55.30;;;32.13;;
33672;SDS011;20011;51.510;9.942;2023-04-16T11:51:22;56.67;;;31.77;;
33672;SDS011;20011;51.510;9.942;2023-04-16T11:53:50;51.28;;;30.60;;
33672;SDS011;20011;51.510;9.942;2023-04-16T11:56:28;56.53;;;32.30;;
33672;SDS011;20011;51.510;9.942;2023-04-16T11:59:17;50.65;;;30.90;;
33672;SDS011;20011;51.510;9.942;2023-04-16T12:01:45;62.08;;;30.77;;
33672;SDS011;20011;51.510;9.942;2023-04-16T12:04:20;49.95;;;31.23;;
33672;SDS011;20011;51.510;9.942;2023-04-16T12:09:39;59.67;;;31.75;;
33672;SDS011;20011;51.510;9.942;2023-04-16T12:14:58;54.67;;;33.25;;
33672;SDS011;20011;51.510;9.942;2023-04-16T12:17:31;55.92;;;31.65;;
33672;SDS011;20011;51.510;9.942;2023-04-16T12:20:01;59.42;;;34.47;;
33672;SDS011;20011;51.510;9.942;2023-04-16T12:22:33;56.85;;;33.42;;
33672;SDS011;20011;51.510;9.942;2023-04-16T12:25:04;54.20;;;33.63;;
33672;SDS011;20011;51.510;9.942;2023-04-16T12:30:13;53.92;;;32.45;;
33672;SDS011;20011;51.510;9.942;2023-04-16T12:32:41;69.65;;;34.22;;
33672;SDS011;20011;51.510;9.942;2023-04-16T12:35:10;64.97;;;32.75;;
33672;SDS011;20011;51.510;9.942;2023-04-16T12:37:38;58.53;;;32.28;;
33672;SDS011;20011;51.510;9.942;2023-04-16T12:40:07;54.22;;;32.80;;
33672;SDS011;20011;51.510;9.942;2023-04-16T12:42:35;62.10;;;34.15;;
33672;SDS011;20011;51.510;9.942;2023-04-16T12:45:05;52.63;;;32.60;;
33672;SDS011;20011;51.510;9.942;2023-04-16T12:47:33;55.95;;;30.67;;
33672;SDS011;20011;51.510;9.942;2023-04-16T12:50:02;54.42;;;33.25;;
33672;SDS011;20011;51.510;9.942;2023-04-16T12:52:29;57.58;;;33.17;;
33672;SDS011;20011;51.510;9.942;2023-04-16T12:54:57;58.45;;;32.97;;
33672;SDS011;20011;51.510;9.942;2023-04-16T12:57:24;60.47;;;32.40;;
33672;SDS011;20011;51.510;9.942;2023-04-16T12:59:54;54.17;;;31.52;;
33672;SDS011;20011;51.510;9.942;2023-04-16T13:02:25;58.40;;;28.88;;
33672;SDS011;20011;51.510;9.942;2023-04-16T13:04:53;50.88;;;29.80;;
33672;SDS011;20011;51.510;9.942;2023-04-16T13:07:20;63.28;;;32.45;;
33672;SDS011;20011;51.510;9.942;2023-04-16T13:09:47;57.78;;;32.47;;
33672;SDS011;20011;51.510;9.942;2023-04-16T13:12:14;50.42;;;31.23;;
33672;SDS011;20011;51.510;9.942;2023-04-16T13:14:41;58.78;;;33.25;;
33672;SDS011;20011;51.510;9.942;2023-04-16T13:17:10;58.42;;;32.10;;
33672;SDS011;20011;51.510;9.942;2023-04-16T13:19:37;53.75;;;30.80;;
33672;SDS011;20011;51.510;9.942;2023-04-16T13:22:04;58.35;;;32.90;;
33672;SDS011;20011;51.510;9.942;2023-04-16T13:24:31;51.38;;;29.98;;
33672;SDS011;20011;51.510;9.942;2023-04-16T13:26:57;54.03;;;30.65;;
33672;SDS011;20011;51.510;9.942;2023-04-16T13:29:25;52.33;;;29.48;;
33672;SDS011;20011;51.510;9.942;2023-04-16T13:31:52;46.38;;;26.92;;
33672;SDS011;20011;51.510;9.942;2023-04-16T13:34:19;43.30;;;25.60;;
33672;SDS011;20011;51.510;9.942;2023-04-16T13:36:47;45.75;;;26.85;;
33672;SDS011;20011;51.510;9.942;2023-04-16T13:39:14;49.70;;;26.45;;
33672;SDS011;20011;51.510;9.942;2023-04-16T13:41:41;40.63;;;26.80;;
33672;SDS011;20011;51.510;9.942;2023-04-16T13:44:08;45.33;;;27.17;;
33672;SDS011;20011;51.510;9.942;2023-04-16T13:46:35;40.47;;;25.38;;
33672;SDS011;20011;51.510;9.942;2023-04-16T13:49:02;48.13;;;26.75;;
33672;SDS011;20011;51.510;9.942;2023-04-16T13:51:29;45.20;;;26.02;;
33672;SDS011;20011;51.510;9.942;2023-04-16T13:53:57;42.60;;;25.92;;
33672;SDS011;20011;51.510;9.942;2023-04-16T13:56:24;46.33;;;27.20;;
33672;SDS011;20011;51.510;9.942;2023-04-16T13:58:51;39.47;;;24.40;;
33672;SDS011;20011;51.510;9.942;2023-04-16T14:01:18;35.42;;;22.80;;
33672;SDS011;20011;51.510;9.942;2023-04-16T14:03:45;38.15;;;21.98;;
33672;SDS011;20011;51.510;9.942;2023-04-16T14:06:12;33.65;;;22.23;;
33672;SDS011;20011;51.510;9.942;2023-04-16T14:08:40;36.40;;;22.33;;
33672;SDS011;20011;51.510;9.942;2023-04-16T14:11:07;34.25;;;23.30;;
33672;SDS011;20011;51.510;9.942;2023-04-16T14:13:35;36.45;;;22.80;;
33672;SDS011;20011;51.510;9.942;2023-04-16T14:16:02;37.45;;;23.48;;
33672;SDS011;20011;51.510;9.942;2023-04-16T14:18:30;34.00;;;22.35;;
33672;SDS011;20011;51.510;9.942;2023-04-16T14:20:57;37.25;;;23.15;;
33672;SDS011;20011;51.510;9.942;2023-04-16T14:23:27;36.72;;;22.95;;
33672;SDS011;20011;51.510;9.942;2023-04-16T14:25:54;36.45;;;21.98;;
33672;SDS011;20011;51.510;9.942;2023-04-16T14:28:22;36.63;;;21.92;;
33672;SDS011;20011;51.510;9.942;2023-04-16T14:30:49;32.63;;;22.65;;
33672;SDS011;20011;51.510;9.942;2023-04-16T14:33:16;30.48;;;20.55;;
33672;SDS011;20011;51.510;9.942;2023-04-16T14:35:43;34.92;;;22.60;;
33672;SDS011;20011;51.510;9.942;2023-04-16T14:38:10;29.00;;;19.00;;
33672;SDS011;20011;51.510;9.942;2023-04-16T14:40:38;35.05;;;20.25;;
33672;SDS011;20011;51.510;9.942;2023-04-16T14:43:06;32.45;;;20.38;;
33672;SDS011;20011;51.510;9.942;2023-04-16T14:45:33;30.08;;;18.42;;
33672;SDS011;20011;51.510;9.942;2023-04-16T14:48:00;30.52;;;19.27;;
33672;SDS011;20011;51.510;9.942;2023-04-16T14:50:27;29.70;;;18.90;;
33672;SDS011;20011;51.510;9.942;2023-04-16T14:52:54;29.77;;;17.73;;
33672;SDS011;20011;51.510;9.942;2023-04-16T14:55:21;29.98;;;18.98;;